Time;durP1;ratioP1;P1;durP2;ratioP2;P2;SDS_P1;SDS_P2;PMS_P1;PMS_P2;Temp;Humidity;BMP_temperature;BMP_pressure;BME280_temperature;BME280_humidity;BME280_pressure;Samples;Min_cycle;Max_cycle;Signal;HPM_P1;HPM_P2
2024/01/20 00:00:24;;;;;;;;;;;27.20;99.90;;;;;;5033342;28;19910;-69
2024/01/20 00:02:51;;;;;;;;;;;27.30;99.90;;;;;;5032044;28;19913;-70
2024/01/20 00:05:17;;;;;;;;;;;27.20;99.90;;;;;;5014318;28;20362;-70
2024/01/20 00:07:44;;;;;;;;;;;27.40;99.90;;;;;;5013137;28;20389;-70
2024/01/20 00:10:11;;;;;;;;;;;27.40;99.90;;;;;;5013427;28;20004;-70
2024/01/20 00:12:38;;;;;;;;;;;27.20;99.90;;;;;;5014071;28;19917;-68
2024/01/20 00:15:07;;;;;;;;;;;26.80;99.90;;;;;;5012833;28;19917;-71
2024/01/20 00:17:34;;;;;;;;;;;26.70;99.90;;;;;;5013114;28;20283;-69
2024/01/20 00:20:01;;;;;;;;;;;26.90;99.90;;;;;;5013203;28;19909;-71
2024/01/20 00:22:27;;;;;;;;;;;26.90;99.90;;;;;;5014554;28;19956;-70
2024/01/20 00:24:58;;;;;;;;;;;27.00;99.90;;;;;;5013181;28;20384;-70
2024/01/20 00:27:25;;;;;;;;;;;26.90;99.90;;;;;;5012885;28;19968;-70
2024/01/20 00:29:53;;;;;;;;;;;26.90;99.90;;;;;;5024305;28;20334;-71
2024/01/20 00:32:19;;;;;;;;;;;26.80;99.90;;;;;;5032211;28;19916;-70
2024/01/20 00:34:46;;;;;;;;;;;26.60;99.90;;;;;;5032846;28;19909;-71
2024/01/20 00:37:12;;;;;;;;;;;26.60;99.90;;;;;;5032895;28;19924;-71
2024/01/20 00:39:39;;;;;;;;;;;26.50;99.90;;;;;;5032755;28;19909;-71
2024/01/20 00:42:06;;;;;;;;;;;26.50;99.90;;;;;;5019050;28;19979;-71
2024/01/20 00:44:32;;;;;;;;;;;26.50;99.90;;;;;;5013589;28;19953;-71
2024/01/20 00:46:59;;;;;;;;;;;26.50;99.90;;;;;;5032690;28;19954;-71
2024/01/20 00:49:26;;;;;;;;;;;26.60;99.90;;;;;;5032890;28;20301;-67
2024/01/20 00:51:52;;;;;;;;;;;26.80;99.90;;;;;;5032519;28;20403;-71
2024/01/20 00:54:19;;;;;;;;;;;27.10;99.90;;;;;;5032661;28;19913;-71
2024/01/20 00:56:46;;;;;;;;;;;27.50;99.90;;;;;;5014850;28;19932;-70
2024/01/20 00:59:12;;;;;;;;;;;27.60;99.90;;;;;;5012877;28;19910;-71
2024/01/20 01:01:39;;;;;;;;;;;27.70;99.90;;;;;;5012614;28;19910;-70
2024/01/20 01:04:06;;;;;;;;;;;27.70;99.90;;;;;;5012965;28;19967;-71
2024/01/20 01:06:33;;;;;;;;;;;27.40;99.90;;;;;;5012862;28;19967;-70
2024/01/20 01:08:59;;;;;;;;;;;27.20;99.90;;;;;;5031807;28;19984;-70
2024/01/20 01:11:26;;;;;;;;;;;27.30;99.90;;;;;;5032712;28;19917;-71
2024/01/20 01:13:52;;;;;;;;;;;27.30;99.90;;;;;;5016894;28;19914;-69
2024/01/20 01:16:19;;;;;;;;;;;27.50;99.90;;;;;;5012807;28;19924;-70
2024/01/20 01:18:46;;;;;;;;;;;27.50;99.90;;;;;;5017746;28;20273;-70
2024/01/20 01:21:12;;;;;;;;;;;27.70;99.90;;;;;;5036200;28;20424;-71
2024/01/20 01:23:39;;;;;;;;;;;27.90;99.90;;;;;;5036267;28;20013;-71
2024/01/20 01:26:06;;;;;;;;;;;28.10;99.90;;;;;;5036625;28;20008;-72
2024/01/20 01:28:33;;;;;;;;;;;28.10;99.90;;;;;;5036542;28;19909;-70
2024/01/20 01:30:59;;;;;;;;;;;28.10;99.90;;;;;;5035074;28;19913;-71
2024/01/20 01:33:26;;;;;;;;;;;27.90;99.90;;;;;;5016465;28;19909;-70
2024/01/20 01:35:53;;;;;;;;;;;27.90;99.90;;;;;;5025427;28;20019;-72
2024/01/20 01:38:19;;;;;;;;;;;27.70;99.90;;;;;;5036433;28;20407;-71
2024/01/20 01:40:46;;;;;;;;;;;27.70;99.90;;;;;;5036268;28;19909;-70
2024/01/20 01:43:12;;;;;;;;;;;27.80;99.90;;;;;;5031692;28;20357;-69
2024/01/20 01:45:39;;;;;;;;;;;28.00;99.90;;;;;;5035639;28;19919;-70
2024/01/20 01:48:06;;;;;;;;;;;28.00;99.90;;;;;;5035996;28;19909;-71
2024/01/20 01:50:33;;;;;;;;;;;28.10;99.90;;;;;;5036120;28;19909;-74
2024/01/20 01:53:00;;;;;;;;;;;28.20;99.90;;;;;;5022420;28;19917;-69
2024/01/20 01:55:27;;;;;;;;;;;28.20;99.90;;;;;;5015723;28;19996;-71
2024/01/20 01:57:56;;;;;;;;;;;27.90;99.90;;;;;;5016358;28;19913;-70
2024/01/20 02:00:22;;;;;;;;;;;27.80;99.90;;;;;;5016255;28;19914;-71
2024/01/20 02:02:49;;;;;;;;;;;27.70;99.90;;;;;;5017571;28;19914;-69
2024/01/20 02:05:16;;;;;;;;;;;27.40;99.90;;;;;;5016042;28;19913;-70
2024/01/20 02:07:43;;;;;;;;;;;27.00;99.90;;;;;;5016213;28;19963;-71
2024/01/20 02:10:14;;;;;;;;;;;26.90;99.90;;;;;;5015811;28;19917;-71
2024/01/20 02:12:41;;;;;;;;;;;27.00;99.90;;;;;;5017277;28;20413;-70
2024/01/20 02:15:07;;;;;;;;;;;27.10;99.90;;;;;;5015623;28;19917;-71
2024/01/20 02:17:34;;;;;;;;;;;27.20;99.90;;;;;;5015592;28;19921;-72
2024/01/20 02:20:01;;;;;;;;;;;27.30;99.90;;;;;;5025348;28;19967;-71
2024/01/20 02:22:27;;;;;;;;;;;27.40;99.90;;;;;;5034942;28;19909;-71
2024/01/20 02:24:54;;;;;;;;;;;27.50;99.90;;;;;;5029248;28;19917;-70
2024/01/20 02:27:21;;;;;;;;;;;27.50;99.90;;;;;;5016924;28;20348;-71
2024/01/20 02:29:47;;;;;;;;;;;27.50;99.90;;;;;;5015822;28;19967;-70
2024/01/20 02:32:14;;;;;;;;;;;27.50;99.90;;;;;;5034797;28;19955;-71
2024/01/20 02:34:41;;;;;;;;;;;27.70;99.90;;;;;;5034862;28;19909;-71
2024/01/20 02:37:08;;;;;;;;;;;27.60;99.90;;;;;;5034201;28;20293;-71
2024/01/20 02:39:34;;;;;;;;;;;27.50;99.90;;;;;;5034797;28;19916;-70
2024/01/20 02:42:01;;;;;;;;;;;27.40;99.90;;;;;;5034922;28;19932;-73
2024/01/20 02:44:28;;;;;;;;;;;27.20;99.90;;;;;;5034137;28;20001;-70
2024/01/20 02:46:56;;;;;;;;;;;27.20;99.90;;;;;;5017401;28;20437;-69
2024/01/20 02:49:23;;;;;;;;;;;27.10;99.90;;;;;;5019518;28;20020;-69
2024/01/20 02:51:49;;;;;;;;;;;27.10;99.90;;;;;;5011922;28;20326;-69
2024/01/20 02:54:16;;;;;;;;;;;27.00;99.90;;;;;;5024254;28;19995;-68
2024/01/20 02:56:43;;;;;;;;;;;26.90;99.90;;;;;;5025692;28;19925;-71
2024/01/20 02:59:09;;;;;;;;;;;26.90;99.90;;;;;;5023186;28;19913;-70
2024/01/20 03:01:36;;;;;;;;;;;26.80;99.90;;;;;;5023731;28;19917;-70
2024/01/20 03:04:02;;;;;;;;;;;26.80;99.90;;;;;;5023065;28;19909;-70
2024/01/20 03:06:29;;;;;;;;;;;26.80;99.90;;;;;;5022614;28;19909;-69
2024/01/20 03:08:56;;;;;;;;;;;26.80;99.90;;;;;;5025482;28;19913;-69
2024/01/20 03:11:22;;;;;;;;;;;26.80;99.90;;;;;;5023315;28;19944;-68
2024/01/20 03:13:49;;;;;;;;;;;26.90;99.90;;;;;;5022644;28;19910;-70
2024/01/20 03:16:16;;;;;;;;;;;26.90;99.90;;;;;;5022885;28;19925;-69
2024/01/20 03:18:43;;;;;;;;;;;27.00;99.90;;;;;;5027303;28;19909;-70
2024/01/20 03:21:09;;;;;;;;;;;27.00;99.90;;;;;;5024765;28;19909;-71
2024/01/20 03:23:36;;;;;;;;;;;27.10;99.90;;;;;;5004829;28;19913;-69
2024/01/20 03:26:07;;;;;;;;;;;27.40;99.90;;;;;;5024164;28;19921;-70
2024/01/20 03:28:34;;;;;;;;;;;27.90;99.90;;;;;;5020594;28;20008;-71
2024/01/20 03:31:01;;;;;;;;;;;28.30;99.90;;;;;;5021344;28;19913;-69
2024/01/20 03:33:28;;;;;;;;;;;28.70;99.90;;;;;;5003799;28;19913;-70
2024/01/20 03:35:54;;;;;;;;;;;29.10;99.90;;;;;;5024782;28;19917;-71
2024/01/20 03:38:21;;;;;;;;;;;29.50;99.30;;;;;;5020172;28;19917;-71
2024/01/20 03:40:47;;;;;;;;;;;29.70;99.20;;;;;;5013103;28;19909;-71
2024/01/20 03:43:14;;;;;;;;;;;29.70;98.80;;;;;;5022564;28;20381;-69
2024/01/20 03:45:42;;;;;;;;;;;29.50;98.80;;;;;;5014214;28;19906;-69
2024/01/20 03:48:09;;;;;;;;;;;29.70;98.90;;;;;;5014625;28;19917;-71
2024/01/20 03:50:36;;;;;;;;;;;30.80;97.90;;;;;;5028668;28;19917;-69
2024/01/20 03:53:02;;;;;;;;;;;31.10;97.00;;;;;;5034332;28;19909;-72
2024/01/20 03:55:29;;;;;;;;;;;31.20;96.70;;;;;;5033934;28;19914;-70
2024/01/20 03:57:56;;;;;;;;;;;30.70;96.70;;;;;;5034044;28;20381;-71
2024/01/20 04:00:22;;;;;;;;;;;30.30;97.30;;;;;;5033886;28;19920;-72
2024/01/20 04:02:49;;;;;;;;;;;30.00;97.80;;;;;;5015207;28;19956;-68
2024/01/20 04:05:16;;;;;;;;;;;29.90;98.20;;;;;;5013466;28;19910;-72
2024/01/20 04:07:43;;;;;;;;;;;29.70;98.20;;;;;;5013820;28;19910;-72
2024/01/20 04:10:09;;;;;;;;;;;29.60;98.40;;;;;;5013633;28;19910;-71
2024/01/20 04:12:36;;;;;;;;;;;29.30;98.70;;;;;;5014179;28;19914;-70
2024/01/20 04:15:03;;;;;;;;;;;28.90;98.80;;;;;;5030861;28;19913;-69
2024/01/20 04:17:30;;;;;;;;;;;28.70;99.30;;;;;;5019314;28;19984;-68
2024/01/20 04:19:56;;;;;;;;;;;29.30;99.30;;;;;;5020600;28;20401;-70
2024/01/20 04:22:23;;;;;;;;;;;30.30;97.90;;;;;;5015425;28;19909;-72
2024/01/20 04:24:50;;;;;;;;;;;31.10;96.50;;;;;;5032725;28;19916;-72
2024/01/20 04:27:16;;;;;;;;;;;31.00;96.50;;;;;;5033173;28;20318;-71
2024/01/20 04:29:43;;;;;;;;;;;30.20;96.90;;;;;;5032792;28;20357;-68
2024/01/20 04:32:09;;;;;;;;;;;30.10;97.90;;;;;;5023203;28;20358;-69
2024/01/20 04:34:36;;;;;;;;;;;29.90;97.60;;;;;;5013405;28;19914;-70
2024/01/20 04:37:03;;;;;;;;;;;29.30;98.00;;;;;;5018813;28;20435;-69
2024/01/20 04:39:30;;;;;;;;;;;29.70;98.80;;;;;;5032667;28;19909;-69
2024/01/20 04:41:56;;;;;;;;;;;30.40;97.70;;;;;;5033207;28;19910;-68
2024/01/20 04:44:23;;;;;;;;;;;30.50;97.50;;;;;;5032980;28;19909;-69
2024/01/20 04:46:49;;;;;;;;;;;30.00;97.80;;;;;;5016640;28;19921;-70
2024/01/20 04:49:16;;;;;;;;;;;30.60;97.80;;;;;;5020840;28;19920;-70
2024/01/20 04:51:43;;;;;;;;;;;32.00;95.70;;;;;;5032646;28;19916;-69
2024/01/20 04:54:09;;;;;;;;;;;32.20;95.70;;;;;;5032655;28;20281;-68
2024/01/20 04:56:36;;;;;;;;;;;33.20;95.20;;;;;;5032978;28;19921;-69
2024/01/20 04:59:03;;;;;;;;;;;34.80;92.90;;;;;;5033048;28;20008;-71
2024/01/20 05:01:29;;;;;;;;;;;35.30;92.40;;;;;;5020662;28;19913;-70
2024/01/20 05:03:56;;;;;;;;;;;35.50;91.70;;;;;;5012589;28;19914;-73
2024/01/20 05:06:22;;;;;;;;;;;35.30;90.70;;;;;;5012408;28;20086;-70
2024/01/20 05:08:49;;;;;;;;;;;34.30;91.60;;;;;;5021729;28;19924;-71
2024/01/20 05:11:16;;;;;;;;;;;33.30;92.20;;;;;;5008045;28;19917;-71
2024/01/20 05:13:42;;;;;;;;;;;32.20;93.60;;;;;;5021783;28;19992;-69
2024/01/20 05:16:10;;;;;;;;;;;31.60;94.40;;;;;;5019657;28;20320;-70
2024/01/20 05:18:37;;;;;;;;;;;30.90;95.00;;;;;;5022674;28;20718;-71
2024/01/20 05:21:03;;;;;;;;;;;30.50;95.90;;;;;;5020450;28;19916;-70
2024/01/20 05:23:30;;;;;;;;;;;30.70;96.00;;;;;;5032697;28;19915;-68
2024/01/20 05:25:56;;;;;;;;;;;30.90;95.90;;;;;;5032692;28;21363;-69
2024/01/20 05:28:23;;;;;;;;;;;31.40;94.80;;;;;;5032842;28;19924;-72
2024/01/20 05:30:50;;;;;;;;;;;31.80;94.80;;;;;;5032696;28;20369;-68
2024/01/20 05:33:16;;;;;;;;;;;32.10;94.00;;;;;;5015149;28;19909;-70
2024/01/20 05:35:43;;;;;;;;;;;31.40;95.20;;;;;;5012943;28;20348;-70
2024/01/20 05:38:09;;;;;;;;;;;31.50;95.00;;;;;;5012830;28;19913;-70
2024/01/20 05:40:36;;;;;;;;;;;32.20;94.70;;;;;;5012822;28;19913;-70
2024/01/20 05:43:04;;;;;;;;;;;32.70;93.80;;;;;;5028496;28;19910;-72
2024/01/20 05:45:30;;;;;;;;;;;33.40;93.80;;;;;;5012741;28;19914;-70
2024/01/20 05:47:57;;;;;;;;;;;34.30;92.40;;;;;;5012599;28;19909;-72
2024/01/20 05:50:24;;;;;;;;;;;35.10;91.90;;;;;;5012376;28;20490;-69
2024/01/20 05:52:50;;;;;;;;;;;35.30;91.20;;;;;;5012850;28;20004;-71
2024/01/20 05:55:17;;;;;;;;;;;35.50;90.90;;;;;;5016270;28;19999;-73
2024/01/20 05:57:44;;;;;;;;;;;35.10;90.60;;;;;;5032223;28;20342;-70
2024/01/20 06:00:10;;;;;;;;;;;33.90;91.30;;;;;;5032670;28;19909;-69
2024/01/20 06:02:37;;;;;;;;;;;32.50;92.80;;;;;;5032405;28;19921;-71
2024/01/20 06:05:04;;;;;;;;;;;31.70;94.30;;;;;;5034542;28;19913;-70
2024/01/20 06:07:31;;;;;;;;;;;31.80;94.50;;;;;;5035742;28;19909;-73
2024/01/20 06:09:57;;;;;;;;;;;32.20;94.30;;;;;;5036007;28;19914;-73
2024/01/20 06:12:24;;;;;;;;;;;33.30;92.90;;;;;;5035223;28;20354;-70
2024/01/20 06:14:50;;;;;;;;;;;33.80;92.60;;;;;;5035625;28;20274;-70
2024/01/20 06:17:17;;;;;;;;;;;34.10;92.10;;;;;;5035230;28;19925;-70
2024/01/20 06:19:44;;;;;;;;;;;34.10;91.90;;;;;;5033437;28;19916;-70
2024/01/20 06:22:10;;;;;;;;;;;33.30;92.40;;;;;;5034658;28;19920;-70
2024/01/20 06:24:37;;;;;;;;;;;32.40;93.40;;;;;;5035691;28;19963;-70
2024/01/20 06:27:03;;;;;;;;;;;31.30;94.70;;;;;;5016483;28;20377;-72
2024/01/20 06:29:30;;;;;;;;;;;30.70;95.70;;;;;;5015995;28;19944;-69
2024/01/20 06:31:57;;;;;;;;;;;30.10;96.40;;;;;;5020391;28;19913;-71
2024/01/20 06:34:23;;;;;;;;;;;29.50;96.90;;;;;;5033795;28;20012;-69
2024/01/20 06:36:50;;;;;;;;;;;29.20;97.40;;;;;;5035431;28;20051;-69
2024/01/20 06:39:17;;;;;;;;;;;28.80;97.90;;;;;;5035662;28;19916;-70
2024/01/20 06:41:45;;;;;;;;;;;28.50;99.00;;;;;;5035390;28;19916;-68
2024/01/20 06:44:12;;;;;;;;;;;28.40;99.40;;;;;;5030259;28;19914;-69
2024/01/20 06:46:38;;;;;;;;;;;28.40;99.40;;;;;;5015552;28;19910;-71
2024/01/20 06:49:05;;;;;;;;;;;28.60;99.60;;;;;;5015716;28;19910;-70
2024/01/20 06:51:32;;;;;;;;;;;28.60;99.40;;;;;;5015491;28;19936;-70
2024/01/20 06:53:58;;;;;;;;;;;28.60;99.70;;;;;;5015362;28;19996;-70
2024/01/20 06:56:25;;;;;;;;;;;28.70;99.40;;;;;;5023618;28;20008;-71
2024/01/20 06:58:52;;;;;;;;;;;28.80;99.50;;;;;;5035193;28;20016;-70
2024/01/20 07:01:19;;;;;;;;;;;28.80;99.50;;;;;;5012080;28;19961;-72
2024/01/20 07:03:45;;;;;;;;;;;28.80;99.60;;;;;;5015315;28;20448;-69
2024/01/20 07:06:13;;;;;;;;;;;28.70;99.80;;;;;;5015197;28;19917;-71
2024/01/20 07:08:42;;;;;;;;;;;28.50;99.90;;;;;;5022893;28;20466;-69
2024/01/20 07:11:11;;;;;;;;;;;28.40;99.90;;;;;;5034813;28;19963;-70
2024/01/20 07:13:38;;;;;;;;;;;28.30;99.90;;;;;;5034845;28;19916;-69
2024/01/20 07:16:10;;;;;;;;;;;28.20;99.90;;;;;;5034454;28;19957;-70
2024/01/20 07:18:37;;;;;;;;;;;28.30;99.90;;;;;;5034712;28;19951;-70
2024/01/20 07:21:04;;;;;;;;;;;28.40;99.90;;;;;;5020831;28;19913;-70
2024/01/20 07:23:31;;;;;;;;;;;28.20;99.90;;;;;;5014963;28;19916;-68
2024/01/20 07:25:58;;;;;;;;;;;28.10;99.90;;;;;;5014895;28;19925;-69
2024/01/20 07:28:25;;;;;;;;;;;27.90;99.90;;;;;;5014830;28;19913;-72
2024/01/20 07:30:52;;;;;;;;;;;27.60;99.90;;;;;;5032212;28;19914;-69
2024/01/20 07:33:18;;;;;;;;;;;27.30;99.90;;;;;;5016790;28;19935;-70
2024/01/20 07:35:45;;;;;;;;;;;27.30;99.90;;;;;;5014663;28;19932;-71
2024/01/20 07:38:12;;;;;;;;;;;27.30;99.90;;;;;;5014913;28;19930;-69
2024/01/20 07:40:39;;;;;;;;;;;27.10;99.90;;;;;;5014563;28;19935;-69
2024/01/20 07:43:06;;;;;;;;;;;27.00;99.90;;;;;;5015951;28;19913;-70
2024/01/20 07:45:33;;;;;;;;;;;27.00;99.90;;;;;;5016405;28;19906;-71
2024/01/20 07:48:00;;;;;;;;;;;27.10;99.90;;;;;;5034449;28;19913;-69
2024/01/20 07:50:27;;;;;;;;;;;27.20;99.90;;;;;;5034401;28;20369;-70
2024/01/20 07:52:53;;;;;;;;;;;27.10;99.90;;;;;;5015006;28;20024;-71
2024/01/20 07:55:20;;;;;;;;;;;26.90;99.90;;;;;;5018501;28;20004;-71
2024/01/20 07:57:47;;;;;;;;;;;26.90;99.90;;;;;;5033939;28;19923;-70
2024/01/20 08:00:14;;;;;;;;;;;26.80;99.90;;;;;;5021578;28;20398;-70
2024/01/20 08:02:40;;;;;;;;;;;26.60;99.90;;;;;;5014309;28;20008;-72
2024/01/20 08:05:07;;;;;;;;;;;26.60;99.90;;;;;;5018463;28;20007;-70
2024/01/20 08:07:33;;;;;;;;;;;26.60;99.90;;;;;;5026044;28;19984;-70
2024/01/20 08:10:03;;;;;;;;;;;26.40;99.90;;;;;;5013851;28;20030;-68
2024/01/20 08:12:30;;;;;;;;;;;26.20;99.90;;;;;;5014174;28;19948;-71
2024/01/20 08:14:56;;;;;;;;;;;26.20;99.90;;;;;;5013598;28;20266;-71
2024/01/20 08:17:23;;;;;;;;;;;26.00;99.90;;;;;;5018867;28;19994;-69
2024/01/20 08:19:50;;;;;;;;;;;25.90;99.90;;;;;;5015989;28;20370;-72
2024/01/20 08:22:19;;;;;;;;;;;25.70;99.90;;;;;;5015948;28;19913;-70
2024/01/20 08:24:46;;;;;;;;;;;25.60;99.90;;;;;;5033787;28;20266;-69
2024/01/20 08:27:12;;;;;;;;;;;25.60;99.90;;;;;;5031113;28;20091;-73
2024/01/20 08:29:39;;;;;;;;;;;25.60;99.90;;;;;;5001156;28;20297;-69
2024/01/20 08:32:09;;;;;;;;;;;25.50;99.90;;;;;;5012978;28;20293;-70
2024/01/20 08:34:36;;;;;;;;;;;25.40;99.90;;;;;;5015784;28;20007;-69
2024/01/20 08:37:03;;;;;;;;;;;25.40;99.90;;;;;;5033346;28;20020;-71
2024/01/20 08:39:29;;;;;;;;;;;25.30;99.90;;;;;;5020230;28;19917;-71
2024/01/20 08:41:56;;;;;;;;;;;25.30;99.90;;;;;;5024667;28;19917;-72
2024/01/20 08:44:23;;;;;;;;;;;25.20;99.90;;;;;;5033009;28;19909;-70
2024/01/20 08:46:49;;;;;;;;;;;25.10;99.90;;;;;;5033234;28;19955;-70
2024/01/20 08:49:16;;;;;;;;;;;25.10;99.90;;;;;;5033235;28;19913;-70
2024/01/20 08:51:42;;;;;;;;;;;25.10;99.90;;;;;;5016937;28;20258;-68
2024/01/20 08:54:09;;;;;;;;;;;25.10;99.90;;;;;;5013191;28;19909;-73
2024/01/20 08:56:36;;;;;;;;;;;25.10;99.90;;;;;;5009538;28;19925;-68
2024/01/20 08:59:02;;;;;;;;;;;25.10;99.90;;;;;;5033034;28;19909;-70
2024/01/20 09:01:29;;;;;;;;;;;25.00;99.90;;;;;;5033130;28;20392;-69
2024/01/20 09:03:56;;;;;;;;;;;25.00;99.90;;;;;;5016064;28;19965;-68
2024/01/20 09:06:23;;;;;;;;;;;25.00;99.90;;;;;;5013109;28;19916;-70
2024/01/20 09:08:49;;;;;;;;;;;25.00;99.90;;;;;;5013115;28;19906;-69
2024/01/20 09:11:16;;;;;;;;;;;24.90;99.90;;;;;;5020921;28;19917;-71
2024/01/20 09:13:43;;;;;;;;;;;24.90;99.90;;;;;;5032865;28;20309;-70
2024/01/20 09:16:09;;;;;;;;;;;24.90;99.90;;;;;;5032668;28;19963;-69
2024/01/20 09:18:36;;;;;;;;;;;24.80;99.90;;;;;;5032980;28;19917;-70
2024/01/20 09:21:03;;;;;;;;;;;24.80;99.90;;;;;;5033071;28;19910;-70
2024/01/20 09:23:29;;;;;;;;;;;24.80;99.90;;;;;;5027888;28;19914;-70
2024/01/20 09:25:56;;;;;;;;;;;24.80;99.90;;;;;;5014705;28;20281;-68
2024/01/20 09:28:23;;;;;;;;;;;24.80;99.90;;;;;;5032631;28;19921;-72
2024/01/20 09:30:49;;;;;;;;;;;24.80;99.90;;;;;;5030105;28;19909;-71
2024/01/20 09:33:16;;;;;;;;;;;24.80;99.90;;;;;;5012774;28;20337;-70
2024/01/20 09:35:43;;;;;;;;;;;24.80;99.90;;;;;;5012802;28;20350;-70
2024/01/20 09:38:09;;;;;;;;;;;24.70;99.90;;;;;;5018549;28;19963;-71
2024/01/20 09:40:36;;;;;;;;;;;24.70;99.90;;;;;;5036323;28;19921;-68
2024/01/20 09:43:04;;;;;;;;;;;24.70;99.90;;;;;;5031081;28;20327;-70
2024/01/20 09:45:31;;;;;;;;;;;24.60;99.90;;;;;;5033061;28;19966;-70
2024/01/20 09:47:58;;;;;;;;;;;24.60;99.90;;;;;;5018801;28;19963;-69
2024/01/20 09:50:24;;;;;;;;;;;24.60;99.90;;;;;;5016703;28;20027;-68
2024/01/20 09:52:58;;;;;;;;;;;24.60;99.90;;;;;;5016656;28;19910;-72
2024/01/20 09:55:26;;;;;;;;;;;24.70;99.90;;;;;;5016388;28;19956;-70
2024/01/20 09:57:53;;;;;;;;;;;24.60;99.90;;;;;;5032606;28;19923;-70
2024/01/20 10:00:24;;;;;;;;;;;24.60;99.90;;;;;;5036422;28;19913;-69
2024/01/20 10:02:51;;;;;;;;;;;24.60;99.90;;;;;;5036449;28;19909;-69
2024/01/20 10:05:18;;;;;;;;;;;24.60;99.90;;;;;;5036133;28;19913;-73
2024/01/20 10:07:44;;;;;;;;;;;24.60;99.90;;;;;;5036105;28;19909;-69
2024/01/20 10:10:21;;;;;;;;;;;24.60;99.90;;;;;;5019828;28;19910;-68
2024/01/20 10:12:51;;;;;;;;;;;24.60;99.90;;;;;;5016418;28;20008;-71
2024/01/20 10:15:28;;;;;;;;;;;24.60;99.90;;;;;;5017282;28;20024;-70
2024/01/20 10:17:57;;;;;;;;;;;24.60;99.90;;;;;;5016126;28;20330;-71
2024/01/20 10:20:25;;;;;;;;;;;24.60;99.90;;;;;;5018919;28;20369;-69
2024/01/20 10:22:52;;;;;;;;;;;24.50;99.90;;;;;;5035223;28;19945;-70
2024/01/20 10:25:19;;;;;;;;;;;24.50;99.90;;;;;;5017821;28;19917;-69
2024/01/20 10:27:47;;;;;;;;;;;24.50;99.90;;;;;;5035713;28;19972;-70
2024/01/20 10:30:17;;;;;;;;;;;24.50;99.90;;;;;;5035850;28;19909;-70
2024/01/20 10:32:46;;;;;;;;;;;24.50;99.90;;;;;;5034130;28;19920;-72
2024/01/20 10:35:14;;;;;;;;;;;24.50;99.90;;;;;;5034469;28;19968;-70
2024/01/20 10:37:45;;;;;;;;;;;24.50;99.90;;;;;;5035176;28;19921;-68
2024/01/20 10:40:13;;;;;;;;;;;24.50;99.90;;;;;;5032747;28;19920;-70
2024/01/20 10:42:46;;;;;;;;;;;24.50;99.90;;;;;;5015705;28;20262;-70
2024/01/20 10:45:20;;;;;;;;;;;24.50;99.90;;;;;;5022736;28;19914;-70
2024/01/20 10:47:58;;;;;;;;;;;24.50;99.90;;;;;;5034943;28;19920;-69
2024/01/20 10:50:26;;;;;;;;;;;24.50;99.90;;;;;;5034852;28;19955;-70
2024/01/20 10:52:53;;;;;;;;;;;24.50;99.90;;;;;;5035347;28;19909;-68
2024/01/20 10:55:19;;;;;;;;;;;24.40;99.90;;;;;;5017377;28;19909;-70
2024/01/20 10:57:47;;;;;;;;;;;24.40;99.90;;;;;;5034325;28;19929;-72
2024/01/20 11:00:14;;;;;;;;;;;24.40;99.90;;;;;;5034802;28;20012;-68
2024/01/20 11:02:41;;;;;;;;;;;24.40;99.90;;;;;;5034973;28;19965;-70
2024/01/20 11:05:17;;;;;;;;;;;24.40;99.90;;;;;;5035151;28;20007;-69
2024/01/20 11:07:54;;;;;;;;;;;24.30;99.90;;;;;;5034915;28;20000;-69
2024/01/20 11:10:23;;;;;;;;;;;24.30;99.90;;;;;;5015143;28;19961;-70
2024/01/20 11:13:19;;;;;;;;;;;24.30;99.90;;;;;;5015008;28;19914;-71
2024/01/20 11:15:49;;;;;;;;;;;24.20;99.90;;;;;;4998309;28;20039;-69
2024/01/20 11:18:19;;;;;;;;;;;24.20;99.90;;;;;;5023843;28;20000;-70
2024/01/20 11:21:02;;;;;;;;;;;24.20;99.90;;;;;;5015066;28;19918;-70
2024/01/20 11:23:29;;;;;;;;;;;24.20;99.90;;;;;;5015134;28;20040;-70
2024/01/20 11:25:56;;;;;;;;;;;24.20;99.90;;;;;;5014943;28;19973;-69
2024/01/20 11:28:33;;;;;;;;;;;24.20;99.90;;;;;;5014894;28;20378;-70
2024/01/20 11:31:00;;;;;;;;;;;24.20;99.90;;;;;;5024459;28;19940;-68
2024/01/20 11:33:27;;;;;;;;;;;24.20;99.90;;;;;;5034343;28;19956;-69
2024/01/20 11:35:53;;;;;;;;;;;24.20;99.90;;;;;;5034435;28;19909;-71
2024/01/20 11:38:21;;;;;;;;;;;24.10;99.90;;;;;;5016583;28;20308;-70
2024/01/20 11:40:57;;;;;;;;;;;24.10;99.90;;;;;;5034182;28;19915;-72
2024/01/20 11:43:23;;;;;;;;;;;24.10;99.90;;;;;;5029088;28;19921;-72
2024/01/20 11:45:50;;;;;;;;;;;24.20;99.90;;;;;;5014557;28;19953;-70
2024/01/20 11:48:18;;;;;;;;;;;24.10;99.90;;;;;;5014501;28;19916;-71
2024/01/20 11:50:44;;;;;;;;;;;24.10;99.90;;;;;;5014117;28;19910;-70
2024/01/20 11:53:11;;;;;;;;;;;24.10;99.90;;;;;;5014523;28;19909;-68
2024/01/20 11:55:37;;;;;;;;;;;24.20;99.90;;;;;;5029234;28;19913;-68
2024/01/20 11:58:04;;;;;;;;;;;24.20;99.90;;;;;;5031985;28;19917;-71
2024/01/20 12:00:31;;;;;;;;;;;24.10;99.90;;;;;;5014241;28;19909;-69
2024/01/20 12:02:57;;;;;;;;;;;24.10;99.90;;;;;;5013425;28;19963;-69
2024/01/20 12:05:24;;;;;;;;;;;24.10;99.90;;;;;;5025635;28;19913;-70
2024/01/20 12:07:51;;;;;;;;;;;24.10;99.90;;;;;;5014540;28;20059;-69
2024/01/20 12:10:18;;;;;;;;;;;24.20;99.90;;;;;;5013519;28;19936;-69
2024/01/20 12:12:45;;;;;;;;;;;24.20;99.90;;;;;;5013898;28;19910;-69
2024/01/20 12:15:14;;;;;;;;;;;24.10;99.90;;;;;;5013921;28;19909;-69
2024/01/20 12:17:41;;;;;;;;;;;24.10;99.90;;;;;;5013843;28;19925;-70
2024/01/20 12:20:08;;;;;;;;;;;24.10;99.90;;;;;;5032791;28;19971;-69
2024/01/20 12:22:36;;;;;;;;;;;24.10;99.90;;;;;;5033137;28;20369;-70
2024/01/20 12:25:02;;;;;;;;;;;24.10;99.90;;;;;;5033457;28;20362;-70
2024/01/20 12:27:30;;;;;;;;;;;24.10;99.90;;;;;;5025184;28;19983;-70
2024/01/20 12:29:56;;;;;;;;;;;24.20;99.90;;;;;;5023766;28;19960;-68
2024/01/20 12:32:23;;;;;;;;;;;24.10;99.90;;;;;;5030606;28;19909;-70
2024/01/20 12:34:50;;;;;;;;;;;24.10;99.90;;;;;;5033556;28;19909;-69
2024/01/20 12:37:17;;;;;;;;;;;24.00;99.90;;;;;;5033236;28;19921;-70
2024/01/20 12:39:43;;;;;;;;;;;24.20;99.90;;;;;;5033510;28;19910;-71
2024/01/20 12:42:10;;;;;;;;;;;24.10;99.90;;;;;;5031280;28;19913;-70
2024/01/20 12:44:36;;;;;;;;;;;24.10;99.90;;;;;;5013130;28;19917;-69
2024/01/20 12:47:04;;;;;;;;;;;24.10;99.90;;;;;;5013172;28;19914;-69
2024/01/20 12:49:30;;;;;;;;;;;24.00;99.90;;;;;;5013417;28;19951;-70
2024/01/20 12:51:57;;;;;;;;;;;24.00;99.90;;;;;;5013705;28;20321;-69
2024/01/20 12:54:24;;;;;;;;;;;24.00;99.90;;;;;;5020720;28;20292;-69
2024/01/20 12:56:50;;;;;;;;;;;23.90;99.90;;;;;;5030859;28;19913;-69
2024/01/20 12:59:17;;;;;;;;;;;23.80;99.90;;;;;;5013259;28;19910;-70
2024/01/20 13:01:44;;;;;;;;;;;23.80;99.90;;;;;;5013475;28;19925;-71
2024/01/20 13:04:10;;;;;;;;;;;23.80;99.90;;;;;;5016692;28;19967;-71
2024/01/20 13:06:37;;;;;;;;;;;23.80;99.90;;;;;;5021098;28;19924;-70
2024/01/20 13:09:03;;;;;;;;;;;23.70;99.90;;;;;;5013057;28;19952;-71
2024/01/20 13:11:30;;;;;;;;;;;23.70;99.90;;;;;;5015617;28;20294;-67
2024/01/20 13:13:58;;;;;;;;;;;23.60;99.90;;;;;;5015252;28;19910;-69
2024/01/20 13:16:25;;;;;;;;;;;23.60;99.90;;;;;;5017058;28;19921;-69
2024/01/20 13:18:52;;;;;;;;;;;23.60;99.90;;;;;;5017817;28;19914;-69
2024/01/20 13:21:21;;;;;;;;;;;23.50;99.90;;;;;;5017044;28;19916;-68
2024/01/20 13:23:49;;;;;;;;;;;23.50;99.90;;;;;;5017013;28;19964;-69
2024/01/20 13:26:15;;;;;;;;;;;23.50;99.90;;;;;;5030252;28;19913;-69
2024/01/20 13:28:42;;;;;;;;;;;23.50;99.90;;;;;;5036763;28;19913;-71
2024/01/20 13:31:09;;;;;;;;;;;23.40;99.90;;;;;;5009354;28;19913;-70
2024/01/20 13:33:35;;;;;;;;;;;23.40;99.90;;;;;;5036683;28;19944;-71
2024/01/20 13:36:02;;;;;;;;;;;23.40;99.90;;;;;;5031211;28;20320;-68
2024/01/20 13:38:29;;;;;;;;;;;23.40;99.90;;;;;;5016690;28;19918;-68
2024/01/20 13:40:57;;;;;;;;;;;23.30;99.90;;;;;;5016751;28;19962;-69
2024/01/20 13:43:23;;;;;;;;;;;23.30;99.90;;;;;;5032221;28;20006;-68
2024/01/20 13:45:50;;;;;;;;;;;23.30;99.90;;;;;;5025915;28;19918;-70
2024/01/20 13:48:17;;;;;;;;;;;23.30;99.90;;;;;;4999236;28;20313;-69
2024/01/20 13:50:43;;;;;;;;;;;23.30;99.90;;;;;;5016717;28;19953;-69
2024/01/20 13:53:10;;;;;;;;;;;23.20;99.90;;;;;;5020819;28;20387;-70
2024/01/20 13:55:37;;;;;;;;;;;23.20;99.90;;;;;;5028871;28;20317;-70
2024/01/20 13:58:03;;;;;;;;;;;23.10;99.90;;;;;;5016470;28;19929;-71
2024/01/20 14:00:30;;;;;;;;;;;23.10;99.90;;;;;;5016304;28;19913;-68
2024/01/20 14:02:57;;;;;;;;;;;23.10;99.90;;;;;;5016256;28;20004;-70
2024/01/20 14:05:23;;;;;;;;;;;23.00;99.90;;;;;;5016566;28;19915;-69
2024/01/20 14:07:50;;;;;;;;;;;23.10;99.90;;;;;;5024966;28;19913;-69
2024/01/20 14:10:17;;;;;;;;;;;23.10;99.90;;;;;;5016356;28;19917;-69
2024/01/20 14:12:43;;;;;;;;;;;23.00;99.90;;;;;;5016445;28;19913;-70
2024/01/20 14:15:10;;;;;;;;;;;23.10;99.90;;;;;;5016228;28;19932;-68